Time;durP1;ratioP1;P1;durP2;ratioP2;P2;SDS_P1;SDS_P2;PMS_P1;PMS_P2;Temp;Humidity;BMP_temperature;BMP_pressure;BME280_temperature;BME280_humidity;BME280_pressure;Samples;Min_cycle;Max_cycle;Signal;HPM_P1;HPM_P2
2022/10/23 00:01:18;;;;;;;;;;;9.50;99.90;;;;;;5028381;28;19921;-66
2022/10/23 00:03:43;;;;;;;;;;;9.50;99.90;;;;;;5018865;28;19921;-66
2022/10/23 00:06:10;;;;;;;;;;;9.50;99.90;;;;;;5028145;28;20464;-66
2022/10/23 00:08:36;;;;;;;;;;;9.60;99.90;;;;;;5030629;28;19925;-67
2022/10/23 00:11:12;;;;;;;;;;;9.60;99.90;;;;;;5030920;28;19921;-67
2022/10/23 00:13:38;;;;;;;;;;;9.60;99.90;;;;;;5022214;28;19929;-67
2022/10/23 00:16:04;;;;;;;;;;;9.60;99.90;;;;;;5026663;28;19921;-66
2022/10/23 00:18:30;;;;;;;;;;;9.50;99.90;;;;;;5026175;28;19921;-67
2022/10/23 00:20:55;;;;;;;;;;;9.50;99.90;;;;;;5028148;28;19936;-66
2022/10/23 00:23:21;;;;;;;;;;;9.50;99.90;;;;;;5030257;28;19925;-66
2022/10/23 00:25:46;;;;;;;;;;;9.60;99.90;;;;;;5026036;28;19929;-67
2022/10/23 00:28:12;;;;;;;;;;;9.50;99.90;;;;;;5026871;28;19928;-67
2022/10/23 00:30:37;;;;;;;;;;;9.50;99.90;;;;;;5029971;28;19943;-67
2022/10/23 00:33:03;;;;;;;;;;;9.60;99.90;;;;;;5031661;28;19925;-66
2022/10/23 00:35:28;;;;;;;;;;;9.50;99.90;;;;;;5030673;28;20002;-66
2022/10/23 00:37:54;;;;;;;;;;;9.60;99.90;;;;;;5030696;28;19928;-67
2022/10/23 00:40:19;;;;;;;;;;;9.60;99.90;;;;;;5026553;28;19933;-66
2022/10/23 00:42:44;;;;;;;;;;;9.60;99.90;;;;;;5019607;28;19926;-66
2022/10/23 00:45:21;;;;;;;;;;;9.60;99.90;;;;;;5021853;28;20284;-66
2022/10/23 00:47:47;;;;;;;;;;;9.60;99.90;;;;;;5036940;28;19967;-67
2022/10/23 00:50:12;;;;;;;;;;;9.50;99.90;;;;;;5023669;28;19925;-67
2022/10/23 00:52:41;;;;;;;;;;;9.60;99.90;;;;;;5024645;28;19939;-67
2022/10/23 00:55:06;;;;;;;;;;;9.50;99.90;;;;;;5028326;28;19940;-67
2022/10/23 00:57:32;;;;;;;;;;;9.50;99.90;;;;;;5024548;28;19922;-66
2022/10/23 00:59:57;;;;;;;;;;;9.50;99.90;;;;;;5022792;28;19928;-67
2022/10/23 01:02:23;;;;;;;;;;;9.50;99.90;;;;;;5019161;28;20297;-66
2022/10/23 01:04:48;;;;;;;;;;;9.50;99.90;;;;;;5035668;28;19990;-66
2022/10/23 01:07:22;;;;;;;;;;;9.50;99.90;;;;;;5021821;28;19948;-66
2022/10/23 01:09:57;;;;;;;;;;;9.40;99.90;;;;;;5028795;28;20019;-66
2022/10/23 01:12:27;;;;;;;;;;;9.40;99.90;;;;;;5019685;28;20715;-67
2022/10/23 01:14:58;;;;;;;;;;;9.40;99.90;;;;;;5034756;28;20366;-67
2022/10/23 01:17:34;;;;;;;;;;;9.40;99.90;;;;;;5023388;28;19925;-67
2022/10/23 01:20:23;;;;;;;;;;;9.40;99.90;;;;;;5028226;28;19921;-67
2022/10/23 01:22:48;;;;;;;;;;;9.40;99.90;;;;;;5024980;28;19968;-66
2022/10/23 01:25:32;;;;;;;;;;;9.30;99.90;;;;;;5030482;28;20397;-66
2022/10/23 01:28:00;;;;;;;;;;;9.30;99.90;;;;;;5024899;28;20165;-67
2022/10/23 01:30:26;;;;;;;;;;;9.30;99.90;;;;;;5023955;28;19924;-67
2022/10/23 01:33:04;;;;;;;;;;;9.30;99.90;;;;;;5022853;28;19921;-67
2022/10/23 01:35:33;;;;;;;;;;;9.30;99.90;;;;;;5028658;28;20008;-66
2022/10/23 01:38:08;;;;;;;;;;;9.30;99.90;;;;;;5024799;28;19944;-66
2022/10/23 01:40:36;;;;;;;;;;;9.20;99.90;;;;;;5021280;28;19926;-66
2022/10/23 01:43:05;;;;;;;;;;;9.20;99.90;;;;;;5028323;28;19926;-66
2022/10/23 01:45:38;;;;;;;;;;;9.20;99.90;;;;;;5028747;28;19921;-66
2022/10/23 01:48:06;;;;;;;;;;;9.20;99.90;;;;;;5024020;28;19960;-66
2022/10/23 01:50:32;;;;;;;;;;;9.20;99.90;;;;;;5027646;28;19987;-66
2022/10/23 01:52:57;;;;;;;;;;;9.20;99.90;;;;;;5018344;28;20399;-66
2022/10/23 01:55:23;;;;;;;;;;;9.20;99.90;;;;;;5019614;28;19925;-66
2022/10/23 01:57:49;;;;;;;;;;;9.10;99.90;;;;;;5024551;28;20271;-66
2022/10/23 02:00:16;;;;;;;;;;;9.20;99.90;;;;;;5026128;28;19921;-66
2022/10/23 02:02:42;;;;;;;;;;;9.20;99.90;;;;;;5022801;28;19925;-66
2022/10/23 02:05:11;;;;;;;;;;;9.20;99.90;;;;;;5023454;28;20067;-66
2022/10/23 02:07:36;;;;;;;;;;;9.20;99.90;;;;;;5028330;28;19930;-66
2022/10/23 02:10:03;;;;;;;;;;;9.20;99.90;;;;;;5028865;28;20351;-66
2022/10/23 02:12:41;;;;;;;;;;;9.20;99.90;;;;;;5026289;28;19937;-66
2022/10/23 02:15:11;;;;;;;;;;;9.20;99.90;;;;;;5025564;28;19940;-66
2022/10/23 02:17:36;;;;;;;;;;;9.30;99.90;;;;;;5026916;28;19929;-66
2022/10/23 02:20:12;;;;;;;;;;;9.40;99.90;;;;;;5016761;28;19936;-67
2022/10/23 02:22:41;;;;;;;;;;;9.50;99.90;;;;;;5024176;28;20020;-66
2022/10/23 02:25:14;;;;;;;;;;;9.50;99.90;;;;;;5025504;28;20271;-67
2022/10/23 02:27:41;;;;;;;;;;;9.60;99.90;;;;;;5024450;28;19928;-66
2022/10/23 02:30:08;;;;;;;;;;;9.70;99.90;;;;;;5029122;28;19960;-66
2022/10/23 02:32:34;;;;;;;;;;;9.60;99.90;;;;;;5027308;28;19936;-66
2022/10/23 02:35:00;;;;;;;;;;;9.60;99.90;;;;;;5028769;28;19925;-66
2022/10/23 02:37:25;;;;;;;;;;;9.60;99.90;;;;;;5029639;28;19928;-66
2022/10/23 02:39:51;;;;;;;;;;;9.60;99.90;;;;;;5028554;28;19927;-66
2022/10/23 02:42:20;;;;;;;;;;;9.60;99.90;;;;;;5030661;28;19948;-66
2022/10/23 02:44:58;;;;;;;;;;;9.60;99.90;;;;;;5027399;28;20291;-66
2022/10/23 02:47:26;;;;;;;;;;;9.70;99.90;;;;;;5025193;28;19932;-67
2022/10/23 02:50:10;;;;;;;;;;;9.70;99.90;;;;;;5034345;28;20386;-66
2022/10/23 02:52:36;;;;;;;;;;;9.70;99.90;;;;;;5024844;28;20666;-66
2022/10/23 02:55:05;;;;;;;;;;;9.80;99.90;;;;;;5025049;28;20004;-66
2022/10/23 02:57:40;;;;;;;;;;;9.80;99.90;;;;;;5031286;28;19998;-66
2022/10/23 03:00:09;;;;;;;;;;;9.80;99.90;;;;;;5024650;28;20359;-66
2022/10/23 03:02:37;;;;;;;;;;;9.80;99.90;;;;;;5024601;28;20379;-66
2022/10/23 03:05:04;;;;;;;;;;;9.70;99.90;;;;;;5033046;28;19995;-67
2022/10/23 03:07:29;;;;;;;;;;;9.70;99.90;;;;;;5054615;28;20048;-66
2022/10/23 03:09:55;;;;;;;;;;;9.70;99.90;;;;;;5033452;28;20043;-66
2022/10/23 03:12:20;;;;;;;;;;;9.70;99.90;;;;;;5029622;28;19936;-66
2022/10/23 03:14:45;;;;;;;;;;;9.60;99.90;;;;;;5030233;28;19932;-66
2022/10/23 03:17:11;;;;;;;;;;;9.60;99.90;;;;;;5022262;28;19929;-66
2022/10/23 03:19:36;;;;;;;;;;;9.50;99.90;;;;;;5030327;28;19925;-66
2022/10/23 03:22:02;;;;;;;;;;;9.60;99.90;;;;;;5024277;28;19921;-66
2022/10/23 03:24:27;;;;;;;;;;;9.60;99.90;;;;;;5025301;28;20398;-67
2022/10/23 03:26:53;;;;;;;;;;;9.60;99.90;;;;;;5031495;28;20007;-66
2022/10/23 03:29:18;;;;;;;;;;;9.50;99.90;;;;;;5028380;28;19921;-67
2022/10/23 03:31:44;;;;;;;;;;;9.50;99.90;;;;;;5035107;28;20287;-66
2022/10/23 03:34:10;;;;;;;;;;;9.50;99.90;;;;;;5023054;28;20399;-66
2022/10/23 03:36:36;;;;;;;;;;;9.50;99.90;;;;;;5033434;28;19925;-67
2022/10/23 03:39:03;;;;;;;;;;;9.50;99.90;;;;;;5030163;28;19928;-66
2022/10/23 03:41:29;;;;;;;;;;;9.50;99.90;;;;;;5029381;28;19925;-66
2022/10/23 03:43:54;;;;;;;;;;;9.50;99.90;;;;;;5025204;28;19925;-67
2022/10/23 03:46:19;;;;;;;;;;;9.50;99.90;;;;;;5022410;28;19926;-67
2022/10/23 03:48:45;;;;;;;;;;;9.50;99.90;;;;;;5023378;28;20314;-68
2022/10/23 03:51:10;;;;;;;;;;;9.50;99.90;;;;;;5022510;28;20015;-67
2022/10/23 03:53:36;;;;;;;;;;;9.50;99.90;;;;;;5025373;28;20140;-67
2022/10/23 03:56:01;;;;;;;;;;;9.50;99.90;;;;;;5020819;28;19947;-67
2022/10/23 03:58:27;;;;;;;;;;;9.60;99.90;;;;;;5032939;28;19929;-66
2022/10/23 04:00:52;;;;;;;;;;;9.60;99.90;;;;;;5026586;28;19984;-67
2022/10/23 04:03:18;;;;;;;;;;;9.50;99.90;;;;;;5028266;28;20024;-67
2022/10/23 04:05:43;;;;;;;;;;;9.60;99.90;;;;;;5022954;28;19929;-66
2022/10/23 04:08:09;;;;;;;;;;;9.50;99.90;;;;;;5017365;28;19968;-67
2022/10/23 04:10:34;;;;;;;;;;;9.50;99.90;;;;;;5018799;28;19921;-67
2022/10/23 04:13:00;;;;;;;;;;;9.50;99.90;;;;;;5033070;28;19921;-67
2022/10/23 04:15:25;;;;;;;;;;;9.60;99.90;;;;;;5027568;28;19961;-66
2022/10/23 04:17:51;;;;;;;;;;;9.70;99.90;;;;;;5028579;28;20413;-67
2022/10/23 04:20:16;;;;;;;;;;;9.70;99.90;;;;;;5023757;28;19929;-66
2022/10/23 04:22:42;;;;;;;;;;;9.70;99.90;;;;;;5021840;28;20360;-67
2022/10/23 04:25:08;;;;;;;;;;;9.70;99.90;;;;;;5026015;28;19971;-66
2022/10/23 04:27:33;;;;;;;;;;;9.80;99.90;;;;;;5022821;28;19921;-67
2022/10/23 04:29:59;;;;;;;;;;;9.80;99.90;;;;;;5021715;28;20305;-67
2022/10/23 04:32:25;;;;;;;;;;;9.70;99.90;;;;;;5023083;28;19933;-66
2022/10/23 04:34:50;;;;;;;;;;;9.60;99.90;;;;;;5018253;28;19933;-66
2022/10/23 04:37:16;;;;;;;;;;;9.60;99.90;;;;;;5025118;28;19936;-66
2022/10/23 04:39:41;;;;;;;;;;;9.70;99.90;;;;;;5024921;28;19991;-67
2022/10/23 04:42:07;;;;;;;;;;;9.70;99.90;;;;;;5018644;28;19926;-67
2022/10/23 04:44:32;;;;;;;;;;;9.60;99.90;;;;;;5016371;28;20052;-67
2022/10/23 04:46:57;;;;;;;;;;;9.70;99.90;;;;;;5024712;28;19921;-67
2022/10/23 04:49:23;;;;;;;;;;;9.60;99.90;;;;;;5016026;28;20356;-67
2022/10/23 04:51:48;;;;;;;;;;;9.60;99.90;;;;;;5029843;28;19933;-66
2022/10/23 04:54:14;;;;;;;;;;;9.50;99.90;;;;;;5016595;28;20008;-66
2022/10/23 04:56:39;;;;;;;;;;;9.50;99.90;;;;;;5020542;28;19932;-66
2022/10/23 04:59:05;;;;;;;;;;;9.50;99.90;;;;;;5024731;28;19925;-67
2022/10/23 05:01:30;;;;;;;;;;;9.50;99.90;;;;;;5025393;28;19937;-67
2022/10/23 05:03:56;;;;;;;;;;;9.50;99.90;;;;;;5030977;28;20290;-67
2022/10/23 05:06:21;;;;;;;;;;;9.40;99.90;;;;;;5031322;28;19921;-67
2022/10/23 05:08:47;;;;;;;;;;;9.50;99.90;;;;;;5026775;28;20590;-66
2022/10/23 05:11:12;;;;;;;;;;;9.40;99.90;;;;;;5031626;28;20401;-66
2022/10/23 05:13:38;;;;;;;;;;;9.40;99.90;;;;;;5022170;28;19983;-66
2022/10/23 05:16:03;;;;;;;;;;;9.40;99.90;;;;;;5023031;28;19999;-67
2022/10/23 05:18:47;;;;;;;;;;;9.40;99.90;;;;;;5019340;28;20397;-67
2022/10/23 05:21:14;;;;;;;;;;;9.40;99.90;;;;;;5023140;28;19932;-67
2022/10/23 05:23:41;;;;;;;;;;;9.40;99.90;;;;;;5019179;28;20016;-67
2022/10/23 05:26:07;;;;;;;;;;;9.30;99.90;;;;;;5027621;28;19971;-67
2022/10/23 05:28:32;;;;;;;;;;;9.30;99.90;;;;;;5025187;28;20258;-67
2022/10/23 05:30:59;;;;;;;;;;;9.20;99.90;;;;;;5019500;28;19933;-66
2022/10/23 05:33:25;;;;;;;;;;;9.30;99.90;;;;;;5018502;28;19964;-67
2022/10/23 05:35:50;;;;;;;;;;;9.30;99.90;;;;;;5016483;28;19975;-67
2022/10/23 05:38:16;;;;;;;;;;;9.30;99.90;;;;;;5018863;28;20020;-67
2022/10/23 05:40:42;;;;;;;;;;;9.30;99.90;;;;;;5022396;28;19921;-67
2022/10/23 05:43:07;;;;;;;;;;;9.30;99.90;;;;;;5023783;28;19975;-67
2022/10/23 05:45:33;;;;;;;;;;;9.30;99.90;;;;;;5024137;28;19925;-67
2022/10/23 05:47:59;;;;;;;;;;;9.30;99.90;;;;;;5028849;28;19964;-67
2022/10/23 05:50:24;;;;;;;;;;;9.30;99.90;;;;;;5016152;28;19932;-67
2022/10/23 05:52:50;;;;;;;;;;;9.20;99.90;;;;;;5021013;28;20440;-66
2022/10/23 05:55:15;;;;;;;;;;;9.20;99.90;;;;;;5021681;28;19928;-66
2022/10/23 05:57:41;;;;;;;;;;;9.20;99.90;;;;;;5030228;28;20359;-66
2022/10/23 06:00:06;;;;;;;;;;;9.20;99.90;;;;;;5018408;28;19925;-67
2022/10/23 06:02:32;;;;;;;;;;;9.20;99.90;;;;;;5017005;28;19961;-67
2022/10/23 06:04:58;;;;;;;;;;;9.20;99.90;;;;;;5026711;28;19987;-67
2022/10/23 06:07:24;;;;;;;;;;;9.40;99.90;;;;;;5026717;28;19921;-66
2022/10/23 06:09:50;;;;;;;;;;;9.40;99.90;;;;;;5021692;28;19921;-67
2022/10/23 06:12:15;;;;;;;;;;;9.40;99.90;;;;;;5022973;28;20288;-66
2022/10/23 06:14:41;;;;;;;;;;;9.40;99.90;;;;;;5026254;28;19960;-67
2022/10/23 06:17:06;;;;;;;;;;;9.40;99.90;;;;;;5048796;28;19929;-67
2022/10/23 06:19:32;;;;;;;;;;;9.50;99.90;;;;;;5024708;28;19979;-67
2022/10/23 06:21:57;;;;;;;;;;;9.50;99.90;;;;;;5026470;28;20325;-67
2022/10/23 06:24:23;;;;;;;;;;;9.60;99.90;;;;;;5033053;28;19940;-66
2022/10/23 06:26:48;;;;;;;;;;;9.50;99.90;;;;;;5036231;28;19925;-67
2022/10/23 06:29:14;;;;;;;;;;;9.60;99.90;;;;;;5024285;28;19921;-67
2022/10/23 06:31:39;;;;;;;;;;;9.60;99.90;;;;;;5031360;28;19932;-67
2022/10/23 06:34:05;;;;;;;;;;;9.60;99.90;;;;;;5021898;28;19925;-66
2022/10/23 06:36:30;;;;;;;;;;;9.60;99.90;;;;;;5032771;28;19940;-67
2022/10/23 06:38:56;;;;;;;;;;;9.60;99.90;;;;;;5022895;28;19929;-67
2022/10/23 06:41:21;;;;;;;;;;;9.60;99.90;;;;;;5028676;28;19929;-67
2022/10/23 06:43:47;;;;;;;;;;;9.70;99.90;;;;;;5030138;28;20337;-67
2022/10/23 06:46:13;;;;;;;;;;;9.70;99.90;;;;;;5027999;28;20007;-67
2022/10/23 06:48:40;;;;;;;;;;;9.70;99.90;;;;;;5030939;28;20054;-67
2022/10/23 06:51:06;;;;;;;;;;;9.80;99.90;;;;;;5029057;28;20410;-66
2022/10/23 06:53:32;;;;;;;;;;;9.90;99.90;;;;;;5025904;28;19925;-67
2022/10/23 06:56:01;;;;;;;;;;;9.90;99.90;;;;;;5043556;28;19925;-67
2022/10/23 06:58:27;;;;;;;;;;;9.90;99.90;;;;;;5024651;28;19971;-67
2022/10/23 07:00:53;;;;;;;;;;;9.90;99.90;;;;;;5026803;28;19925;-67
2022/10/23 07:03:18;;;;;;;;;;;10.00;99.90;;;;;;5028484;28;19929;-67
2022/10/23 07:05:46;;;;;;;;;;;10.00;99.90;;;;;;5029803;28;19924;-67
2022/10/23 07:08:12;;;;;;;;;;;10.00;99.90;;;;;;5032573;28;19928;-67
2022/10/23 07:10:41;;;;;;;;;;;10.10;99.90;;;;;;5030501;28;19968;-67
2022/10/23 07:13:08;;;;;;;;;;;10.10;99.90;;;;;;5030340;28;19933;-67
2022/10/23 07:15:33;;;;;;;;;;;10.20;99.90;;;;;;5025928;28;19921;-67
2022/10/23 07:17:59;;;;;;;;;;;10.20;99.90;;;;;;5039127;28;19928;-67
2022/10/23 07:20:24;;;;;;;;;;;10.20;99.90;;;;;;5047549;28;19925;-67
2022/10/23 07:22:51;;;;;;;;;;;10.30;99.90;;;;;;5031569;28;20414;-67
2022/10/23 07:25:16;;;;;;;;;;;10.30;99.90;;;;;;5032431;28;19944;-67
2022/10/23 07:27:41;;;;;;;;;;;10.40;99.90;;;;;;5030690;28;19921;-67
2022/10/23 07:30:07;;;;;;;;;;;10.40;99.90;;;;;;5032072;28;19932;-67
2022/10/23 07:32:33;;;;;;;;;;;10.50;99.90;;;;;;5029009;28;19929;-67
2022/10/23 07:34:58;;;;;;;;;;;10.50;99.90;;;;;;5032340;28;19964;-67
2022/10/23 07:37:24;;;;;;;;;;;10.60;99.90;;;;;;5028323;28;19925;-67
2022/10/23 07:39:49;;;;;;;;;;;10.60;99.90;;;;;;5029393;28;19921;-66
2022/10/23 07:42:15;;;;;;;;;;;10.70;99.90;;;;;;5028731;28;19982;-68
2022/10/23 07:44:40;;;;;;;;;;;10.70;99.90;;;;;;5031112;28;19931;-66
2022/10/23 07:47:06;;;;;;;;;;;10.70;99.90;;;;;;5032967;28;19921;-67
2022/10/23 07:49:31;;;;;;;;;;;10.80;99.90;;;;;;5033278;28;20011;-67
2022/10/23 07:51:57;;;;;;;;;;;10.80;99.90;;;;;;5030003;28;20599;-67
2022/10/23 07:54:23;;;;;;;;;;;10.80;99.90;;;;;;5031603;28;19933;-67
2022/10/23 07:56:48;;;;;;;;;;;10.90;99.90;;;;;;5028483;28;19979;-67
2022/10/23 07:59:14;;;;;;;;;;;11.00;99.90;;;;;;5031620;28;19966;-67
2022/10/23 08:01:41;;;;;;;;;;;11.00;99.90;;;;;;5028275;28;20037;-67
2022/10/23 08:04:07;;;;;;;;;;;11.10;99.90;;;;;;5032488;28;19933;-66
2022/10/23 08:06:34;;;;;;;;;;;11.10;99.90;;;;;;5037696;23;19936;-68
2022/10/23 08:08:59;;;;;;;;;;;11.20;99.90;;;;;;5035474;28;19921;-68
2022/10/23 08:11:26;;;;;;;;;;;11.30;99.90;;;;;;5048702;28;19935;-68
2022/10/23 08:13:53;;;;;;;;;;;11.30;99.90;;;;;;5049155;28;19921;-68
2022/10/23 08:16:19;;;;;;;;;;;11.30;99.90;;;;;;5027134;28;19932;-68
2022/10/23 08:18:47;;;;;;;;;;;11.40;99.90;;;;;;5031375;28;19921;-68
2022/10/23 08:21:12;;;;;;;;;;;11.50;99.90;;;;;;5032756;28;19920;-68
2022/10/23 08:23:38;;;;;;;;;;;11.50;99.90;;;;;;5034668;28;20384;-68
2022/10/23 08:26:04;;;;;;;;;;;11.60;99.90;;;;;;5034790;28;19928;-68
2022/10/23 08:28:30;;;;;;;;;;;11.60;99.90;;;;;;5027675;28;20007;-67
2022/10/23 08:30:55;;;;;;;;;;;11.70;99.90;;;;;;5034509;28;20020;-68
2022/10/23 08:33:21;;;;;;;;;;;11.70;99.90;;;;;;5032715;28;19933;-68
2022/10/23 08:35:47;;;;;;;;;;;11.80;99.90;;;;;;5034193;28;19921;-68
2022/10/23 08:38:12;;;;;;;;;;;11.90;99.90;;;;;;5029095;28;20313;-68
2022/10/23 08:40:42;;;;;;;;;;;11.90;99.90;;;;;;5026808;28;19951;-68
2022/10/23 08:43:11;;;;;;;;;;;12.00;99.90;;;;;;5029897;28;19924;-68
2022/10/23 08:45:43;;;;;;;;;;;12.10;99.90;;;;;;5032800;28;19928;-68
2022/10/23 08:48:20;;;;;;;;;;;12.20;99.90;;;;;;5033753;28;19924;-68
2022/10/23 08:50:48;;;;;;;;;;;12.30;99.90;;;;;;5030081;28;19956;-68
2022/10/23 08:53:19;;;;;;;;;;;12.30;99.90;;;;;;5015770;28;19920;-68
2022/10/23 08:55:53;;;;;;;;;;;12.40;99.90;;;;;;5011196;28;19921;-68
2022/10/23 08:58:19;;;;;;;;;;;12.40;99.90;;;;;;5043585;28;20345;-68
2022/10/23 09:00:45;;;;;;;;;;;12.50;99.90;;;;;;5034161;28;19960;-68
2022/10/23 09:03:12;;;;;;;;;;;12.60;99.90;;;;;;5032354;28;20485;-68
2022/10/23 09:05:56;;;;;;;;;;;12.60;99.90;;;;;;5027026;28;20001;-68
2022/10/23 09:08:31;;;;;;;;;;;12.70;99.90;;;;;;5052698;28;19939;-68
2022/10/23 09:11:10;;;;;;;;;;;12.80;99.90;;;;;;5033393;28;20027;-68
2022/10/23 09:13:59;;;;;;;;;;;12.80;99.90;;;;;;5031155;28;19980;-68
2022/10/23 09:16:25;;;;;;;;;;;12.90;99.90;;;;;;5025857;28;19921;-68
2022/10/23 09:18:50;;;;;;;;;;;13.00;99.90;;;;;;5033906;28;19931;-67
2022/10/23 09:21:16;;;;;;;;;;;13.00;99.90;;;;;;5049996;28;19925;-66
2022/10/23 09:23:41;;;;;;;;;;;13.10;99.90;;;;;;5011279;28;19925;-66
2022/10/23 09:26:15;;;;;;;;;;;13.20;99.90;;;;;;5031176;28;20068;-66
2022/10/23 09:29:01;;;;;;;;;;;13.30;99.90;;;;;;5052861;28;19928;-67
2022/10/23 09:31:26;;;;;;;;;;;13.40;99.90;;;;;;5030939;28;19925;-67
2022/10/23 09:33:56;;;;;;;;;;;13.50;99.90;;;;;;5011231;28;20027;-68
2022/10/23 09:36:23;;;;;;;;;;;13.50;99.90;;;;;;5026226;28;19948;-68
2022/10/23 09:38:49;;;;;;;;;;;13.60;99.90;;;;;;5028565;28;19940;-68
2022/10/23 09:41:25;;;;;;;;;;;13.70;99.90;;;;;;5047368;28;19936;-68
2022/10/23 09:44:06;;;;;;;;;;;13.70;99.90;;;;;;5027823;28;19948;-68
2022/10/23 09:46:41;;;;;;;;;;;13.80;99.90;;;;;;5027382;28;19932;-68
2022/10/23 09:49:17;;;;;;;;;;;13.80;99.90;;;;;;5023495;28;20263;-68
2022/10/23 09:51:51;;;;;;;;;;;13.90;99.90;;;;;;5022935;28;20047;-69
2022/10/23 09:54:18;;;;;;;;;;;13.90;99.90;;;;;;5028004;28;19925;-68
2022/10/23 09:56:46;;;;;;;;;;;14.00;99.90;;;;;;5013779;28;20448;-68
2022/10/23 09:59:12;;;;;;;;;;;14.00;99.90;;;;;;5017000;28;20412;-68
2022/10/23 10:01:51;;;;;;;;;;;14.00;99.90;;;;;;5031341;28;20012;-69
2022/10/23 10:04:17;;;;;;;;;;;14.10;99.90;;;;;;5031242;28;19928;-68
2022/10/23 10:06:42;;;;;;;;;;;14.10;99.90;;;;;;5012442;28;20243;-68
2022/10/23 10:09:13;;;;;;;;;;;14.20;99.90;;;;;;5015883;28;20365;-68
2022/10/23 10:11:42;;;;;;;;;;;14.30;99.90;;;;;;5029529;28;19983;-68
2022/10/23 10:14:10;;;;;;;;;;;14.30;99.90;;;;;;5030268;28;19927;-68
2022/10/23 10:16:50;;;;;;;;;;;14.40;99.90;;;;;;5023761;28;19971;-69
2022/10/23 10:19:27;;;;;;;;;;;14.50;99.90;;;;;;5030248;28;19921;-68
2022/10/23 10:21:56;;;;;;;;;;;14.60;99.90;;;;;;5028061;28;19928;-68
2022/10/23 10:24:26;;;;;;;;;;;14.60;99.90;;;;;;5028964;28;19943;-68
2022/10/23 10:26:54;;;;;;;;;;;14.70;99.90;;;;;;5030331;28;19921;-68
2022/10/23 10:29:28;;;;;;;;;;;14.90;99.90;;;;;;5021013;28;19936;-68
2022/10/23 10:31:57;;;;;;;;;;;14.90;99.90;;;;;;5032701;28;19991;-68
2022/10/23 10:34:46;;;;;;;;;;;15.10;99.90;;;;;;5019387;28;19979;-68
2022/10/23 10:37:30;;;;;;;;;;;15.20;99.90;;;;;;5006658;28;19928;-68
2022/10/23 10:40:05;;;;;;;;;;;15.20;99.90;;;;;;5030110;28;20543;-69
2022/10/23 10:42:30;;;;;;;;;;;15.30;99.90;;;;;;5011346;28;19921;-68
2022/10/23 10:45:15;;;;;;;;;;;15.40;99.90;;;;;;5031670;28;19924;-68
2022/10/23 10:47:40;;;;;;;;;;;15.40;99.90;;;;;;5032153;28;19921;-68
2022/10/23 10:50:13;;;;;;;;;;;15.50;99.90;;;;;;5025988;28;19921;-68
2022/10/23 10:52:50;;;;;;;;;;;15.50;99.90;;;;;;5033735;28;19935;-68
2022/10/23 10:55:21;;;;;;;;;;;15.50;99.90;;;;;;5024833;28;19999;-68
2022/10/23 10:57:50;;;;;;;;;;;15.60;99.90;;;;;;5035418;28;20290;-68
2022/10/23 11:00:20;;;;;;;;;;;15.60;99.90;;;;;;5032159;28;19925;-68
2022/10/23 11:02:47;;;;;;;;;;;15.60;99.90;;;;;;5034332;28;19979;-68
2022/10/23 11:05:28;;;;;;;;;;;15.60;99.90;;;;;;5024016;28;19936;-68
2022/10/23 11:08:06;;;;;;;;;;;15.60;99.90;;;;;;5037466;28;21845;-68
2022/10/23 11:10:32;;;;;;;;;;;15.50;99.90;;;;;;5035173;28;19924;-67
2022/10/23 11:12:58;;;;;;;;;;;15.60;99.90;;;;;;5034148;28;19929;-68
2022/10/23 11:15:41;;;;;;;;;;;15.60;99.90;;;;;;5023147;28;20547;-68
2022/10/23 11:18:12;;;;;;;;;;;15.60;99.90;;;;;;5024541;28;19929;-68
2022/10/23 11:20:50;;;;;;;;;;;15.60;99.90;;;;;;5021621;28;19931;-68
2022/10/23 11:23:34;;;;;;;;;;;15.60;99.90;;;;;;5033601;28;19928;-68
2022/10/23 11:26:05;;;;;;;;;;;15.50;99.90;;;;;;5027107;28;20325;-68
2022/10/23 11:28:49;;;;;;;;;;;15.50;99.90;;;;;;5047814;28;19943;-68
2022/10/23 11:31:15;;;;;;;;;;;15.60;99.90;;;;;;5030868;28;20052;-68
2022/10/23 11:33:59;;;;;;;;;;;15.60;99.90;;;;;;5018019;28;20016;-68
2022/10/23 11:36:37;;;;;;;;;;;15.50;99.90;;;;;;5034381;28;19921;-68
2022/10/23 11:39:13;;;;;;;;;;;15.50;99.90;;;;;;5039842;28;19920;-68
2022/10/23 11:41:46;;;;;;;;;;;15.50;99.90;;;;;;5031821;28;19974;-68
2022/10/23 11:44:41;;;;;;;;;;;15.50;99.90;;;;;;5037842;28;19921;-68
2022/10/23 11:47:25;;;;;;;;;;;15.40;99.90;;;;;;5028566;28;20366;-68
2022/10/23 11:50:06;;;;;;;;;;;15.40;99.90;;;;;;5035358;28;19924;-68
2022/10/23 11:52:33;;;;;;;;;;;15.40;99.90;;;;;;5029777;28;20016;-68
2022/10/23 11:55:31;;;;;;;;;;;15.40;99.90;;;;;;5042854;28;20012;-68
2022/10/23 11:58:18;;;;;;;;;;;15.40;99.90;;;;;;5006646;28;20011;-68
2022/10/23 12:00:51;;;;;;;;;;;15.50;99.90;;;;;;5034526;28;19921;-68
2022/10/23 12:03:19;;;;;;;;;;;15.50;99.90;;;;;;5033836;28;20313;-68
2022/10/23 12:05:45;;;;;;;;;;;15.50;99.90;;;;;;5029133;28;19920;-68
2022/10/23 12:08:22;;;;;;;;;;;15.50;99.90;;;;;;5048843;28;19924;-68
2022/10/23 12:10:51;;;;;;;;;;;15.50;99.90;;;;;;5022172;28;19921;-68
2022/10/23 12:13:36;;;;;;;;;;;15.50;99.90;;;;;;5038962;28;19932;-68
2022/10/23 12:16:02;;;;;;;;;;;15.60;99.90;;;;;;5033985;28;19975;-68
2022/10/23 12:18:27;;;;;;;;;;;15.60;99.90;;;;;;5039623;28;20207;-68
2022/10/23 12:20:55;;;;;;;;;;;15.60;99.90;;;;;;5014176;28;19928;-68
2022/10/23 12:23:34;;;;;;;;;;;15.60;99.90;;;;;;5023240;28;20008;-68
2022/10/23 12:26:03;;;;;;;;;;;15.60;99.90;;;;;;5019515;28;19921;-68
2022/10/23 12:28:31;;;;;;;;;;;15.70;99.90;;;;;;5010059;28;19929;-68
2022/10/23 12:31:03;;;;;;;;;;;15.70;99.90;;;;;;5031934;28;19932;-68
2022/10/23 12:33:38;;;;;;;;;;;15.70;99.90;;;;;;5036258;28;19931;-68
2022/10/23 12:36:21;;;;;;;;;;;15.80;99.90;;;;;;5029623;28;19952;-68
2022/10/23 12:38:48;;;;;;;;;;;15.80;99.90;;;;;;5028999;28;19921;-68
2022/10/23 12:41:17;;;;;;;;;;;15.80;99.90;;;;;;5024197;28;19921;-68
2022/10/23 12:43:44;;;;;;;;;;;15.90;99.90;;;;;;5024596;28;19975;-68
2022/10/23 12:46:21;;;;;;;;;;;15.80;99.90;;;;;;5023251;28;20286;-68
2022/10/23 12:48:48;;;;;;;;;;;15.80;99.90;;;;;;5022274;28;19932;-68
2022/10/23 12:51:19;;;;;;;;;;;15.90;99.90;;;;;;5028892;28;19928;-68
2022/10/23 12:53:47;;;;;;;;;;;15.80;99.90;;;;;;5021166;28;19921;-68
2022/10/23 12:56:13;;;;;;;;;;;15.80;99.90;;;;;;5023818;28;19970;-68
2022/10/23 12:58:44;;;;;;;;;;;15.80;99.90;;;;;;5025300;28;20341;-68
2022/10/23 13:01:21;;;;;;;;;;;15.80;99.90;;;;;;5023661;28;20401;-68
2022/10/23 13:03:47;;;;;;;;;;;15.80;99.90;;;;;;5019541;28;19921;-68
2022/10/23 13:06:12;;;;;;;;;;;15.80;99.90;;;;;;5024769;28;19931;-68
2022/10/23 13:08:40;;;;;;;;;;;15.90;99.90;;;;;;5023543;28;19933;-68
2022/10/23 13:11:08;;;;;;;;;;;15.90;99.90;;;;;;5034158;28;19943;-68
2022/10/23 13:13:34;;;;;;;;;;;15.90;99.90;;;;;;5044916;28;19932;-68
2022/10/23 13:15:59;;;;;;;;;;;15.90;99.90;;;;;;5028507;28;20511;-68
2022/10/23 13:18:24;;;;;;;;;;;15.90;99.90;;;;;;5028433;28;20331;-68
2022/10/23 13:20:50;;;;;;;;;;;15.90;99.90;;;;;;5024062;28;19921;-68
2022/10/23 13:23:17;;;;;;;;;;;15.90;99.90;;;;;;5025458;28;20011;-68
2022/10/23 13:25:51;;;;;;;;;;;15.90;99.90;;;;;;5028107;28;19924;-68
2022/10/23 13:28:40;;;;;;;;;;;16.00;99.90;;;;;;5029501;28;20336;-68
2022/10/23 13:31:09;;;;;;;;;;;16.00;99.90;;;;;;5026790;28;20023;-68
2022/10/23 13:33:39;;;;;;;;;;;16.00;99.90;;;;;;5025606;28;20465;-68
2022/10/23 13:36:07;;;;;;;;;;;16.00;99.90;;;;;;5029058;28;19995;-68
2022/10/23 13:38:34;;;;;;;;;;;16.00;99.90;;;;;;5030979;28;19927;-68
2022/10/23 13:41:00;;;;;;;;;;;16.00;99.90;;;;;;5024499;28;19924;-68
2022/10/23 13:43:26;;;;;;;;;;;16.00;99.90;;;;;;5025500;28;20370;-68
2022/10/23 13:45:52;;;;;;;;;;;16.00;99.90;;;;;;5040793;28;19921;-68
2022/10/23 13:48:19;;;;;;;;;;;16.00;99.90;;;;;;5027544;28;20285;-68
2022/10/23 13:50:44;;;;;;;;;;;16.00;99.90;;;;;;5024998;28;20485;-68
2022/10/23 13:53:13;;;;;;;;;;;16.00;99.90;;;;;;5030518;28;19973;-68
2022/10/23 13:55:41;;;;;;;;;;;16.00;99.90;;;;;;5023075;28;19925;-67
2022/10/23 13:58:07;;;;;;;;;;;16.00;99.90;;;;;;5024667;28;19921;-68
2022/10/23 14:00:33;;;;;;;;;;;15.90;99.90;;;;;;5023803;28;19932;-68
2022/10/23 14:02:58;;;;;;;;;;;15.90;99.90;;;;;;5027444;28;19925;-68
2022/10/23 14:05:24;;;;;;;;;;;15.90;99.90;;;;;;5024728;28;19921;-68
2022/10/23 14:07:49;;;;;;;;;;;15.90;99.90;;;;;;5026015;28;19925;-68
2022/10/23 14:10:15;;;;;;;;;;;15.90;99.90;;;;;;5027634;28;20458;-68
2022/10/23 14:12:40;;;;;;;;;;;15.90;99.90;;;;;;5009462;28;19925;-68
2022/10/23 14:15:06;;;;;;;;;;;15.90;99.90;;;;;;5031510;28;19932;-68
2022/10/23 14:17:33;;;;;;;;;;;15.80;99.90;;;;;;5039063;28;20418;-68
2022/10/23 14:19:58;;;;;;;;;;;15.80;99.90;;;;;;5024365;28;19925;-68
2022/10/23 14:22:24;;;;;;;;;;;15.80;99.90;;;;;;5027733;28;19921;-68
2022/10/23 14:24:49;;;;;;;;;;;15.80;99.90;;;;;;5023391;28;20372;-68
2022/10/23 14:27:14;;;;;;;;;;;15.80;99.90;;;;;;5021565;28;19932;-68
2022/10/23 14:29:40;;;;;;;;;;;15.70;99.90;;;;;;5013706;28;19929;-68
2022/10/23 14:32:06;;;;;;;;;;;15.70;99.90;;;;;;5027053;28;19931;-68